sensor_id;sensor_type;location;lat;lon;timestamp;temperature;humidity
41876;DHT22;27555;50.808;4.402;2022-12-26T00:01:33;12.50;99.90
41876;DHT22;27555;50.808;4.402;2022-12-26T00:03:59;12.30;99.90
41876;DHT22;27555;50.808;4.402;2022-12-26T00:06:27;12.10;99.90
41876;DHT22;27555;50.808;4.402;2022-12-26T00:08:53;12.20;99.90
41876;DHT22;27555;50.808;4.402;2022-12-26T00:11:20;12.20;99.90
41876;DHT22;27555;50.808;4.402;2022-12-26T00:13:46;12.30;99.90
41876;DHT22;27555;50.808;4.402;2022-12-26T00:16:15;12.60;99.90
41876;DHT22;27555;50.808;4.402;2022-12-26T00:18:41;12.60;99.90
41876;DHT22;27555;50.808;4.402;2022-12-26T00:21:09;12.40;99.90
41876;DHT22;27555;50.808;4.402;2022-12-26T00:23:35;12.50;99.90
41876;DHT22;27555;50.808;4.402;2022-12-26T00:26:06;12.80;99.90
41876;DHT22;27555;50.808;4.402;2022-12-26T00:28:32;12.40;99.90
41876;DHT22;27555;50.808;4.402;2022-12-26T00:30:58;12.40;99.90
41876;DHT22;27555;50.808;4.402;2022-12-26T00:33:23;12.40;99.90
41876;DHT22;27555;50.808;4.402;2022-12-26T00:35:49;12.40;99.90
41876;DHT22;27555;50.808;4.402;2022-12-26T00:38:14;12.10;99.90
41876;DHT22;27555;50.808;4.402;2022-12-26T00:40:40;12.30;99.90
41876;DHT22;27555;50.808;4.402;2022-12-26T00:43:08;12.20;99.90
41876;DHT22;27555;50.808;4.402;2022-12-26T00:45:34;12.20;99.90
41876;DHT22;27555;50.808;4.402;2022-12-26T00:47:59;12.30;99.90
41876;DHT22;27555;50.808;4.402;2022-12-26T00:50:25;12.50;99.90
41876;DHT22;27555;50.808;4.402;2022-12-26T00:52:51;12.40;99.90
41876;DHT22;27555;50.808;4.402;2022-12-26T00:55:16;12.30;99.90
41876;DHT22;27555;50.808;4.402;2022-12-26T00:57:42;12.10;99.90
41876;DHT22;27555;50.808;4.402;2022-12-26T01:00:08;12.10;99.90
41876;DHT22;27555;50.808;4.402;2022-12-26T01:02:33;12.10;99.90
41876;DHT22;27555;50.808;4.402;2022-12-26T01:05:03;12.10;99.90
41876;DHT22;27555;50.808;4.402;2022-12-26T01:07:32;12.40;99.90
41876;DHT22;27555;50.808;4.402;2022-12-26T01:09:59;12.20;99.90
41876;DHT22;27555;50.808;4.402;2022-12-26T01:12:25;12.20;99.90
41876;DHT22;27555;50.808;4.402;2022-12-26T01:14:54;12.40;99.90
41876;DHT22;27555;50.808;4.402;2022-12-26T01:17:19;12.30;99.90
41876;DHT22;27555;50.808;4.402;2022-12-26T01:19:45;12.20;99.90
41876;DHT22;27555;50.808;4.402;2022-12-26T01:22:11;12.30;99.90
41876;DHT22;27555;50.808;4.402;2022-12-26T01:24:36;12.40;99.90
41876;DHT22;27555;50.808;4.402;2022-12-26T01:27:02;12.40;99.90
41876;DHT22;27555;50.808;4.402;2022-12-26T01:29:27;12.40;99.90
41876;DHT22;27555;50.808;4.402;2022-12-26T01:31:53;12.40;99.90
41876;DHT22;27555;50.808;4.402;2022-12-26T01:34:18;12.50;99.90
41876;DHT22;27555;50.808;4.402;2022-12-26T01:36:44;12.40;99.90
41876;DHT22;27555;50.808;4.402;2022-12-26T01:39:10;12.40;99.90
41876;DHT22;27555;50.808;4.402;2022-12-26T01:41:35;12.40;99.90
41876;DHT22;27555;50.808;4.402;2022-12-26T01:44:04;12.30;99.90
41876;DHT22;27555;50.808;4.402;2022-12-26T01:46:43;12.30;99.90
41876;DHT22;27555;50.808;4.402;2022-12-26T01:49:19;12.20;99.90
41876;DHT22;27555;50.808;4.402;2022-12-26T01:51:53;12.30;99.90
41876;DHT22;27555;50.808;4.402;2022-12-26T01:54:22;12.20;99.90
41876;DHT22;27555;50.808;4.402;2022-12-26T01:56:49;12.20;99.90
41876;DHT22;27555;50.808;4.402;2022-12-26T01:59:22;12.30;99.90
41876;DHT22;27555;50.808;4.402;2022-12-26T02:01:50;12.40;99.90
41876;DHT22;27555;50.808;4.402;2022-12-26T02:04:22;12.50;99.90
41876;DHT22;27555;50.808;4.402;2022-12-26T02:07:07;12.40;99.90
41876;DHT22;27555;50.808;4.402;2022-12-26T02:09:33;12.30;99.90
41876;DHT22;27555;50.808;4.402;2022-12-26T02:12:13;12.30;99.90
41876;DHT22;27555;50.808;4.402;2022-12-26T02:14:40;12.20;99.90
41876;DHT22;27555;50.808;4.402;2022-12-26T02:17:07;12.10;99.90
41876;DHT22;27555;50.808;4.402;2022-12-26T02:19:54;12.00;99.90
41876;DHT22;27555;50.808;4.402;2022-12-26T02:25:23;12.20;99.90
41876;DHT22;27555;50.808;4.402;2022-12-26T02:56:57;11.40;99.90
41876;DHT22;27555;50.808;4.402;2022-12-26T03:00:16;11.50;99.90
41876;DHT22;27555;50.808;4.402;2022-12-26T03:03:21;11.40;99.90
41876;DHT22;27555;50.808;4.402;2022-12-26T03:06:14;11.40;99.90
41876;DHT22;27555;50.808;4.402;2022-12-26T03:09:06;11.50;99.90
41876;DHT22;27555;50.808;4.402;2022-12-26T03:11:56;11.30;99.90
41876;DHT22;27555;50.808;4.402;2022-12-26T03:14:56;11.40;99.90
41876;DHT22;27555;50.808;4.402;2022-12-26T03:17:32;11.50;99.90
41876;DHT22;27555;50.808;4.402;2022-12-26T03:22:49;11.50;99.90
41876;DHT22;27555;50.808;4.402;2022-12-26T03:28:27;11.50;99.90
41876;DHT22;27555;50.808;4.402;2022-12-26T03:30:55;11.60;99.90
41876;DHT22;27555;50.808;4.402;2022-12-26T03:36:06;11.60;99.90
41876;DHT22;27555;50.808;4.402;2022-12-26T03:41:29;11.60;99.90
41876;DHT22;27555;50.808;4.402;2022-12-26T03:44:30;11.60;99.90
41876;DHT22;27555;50.808;4.402;2022-12-26T03:47:24;11.70;99.90
41876;DHT22;27555;50.808;4.402;2022-12-26T03:53:38;11.40;99.90
41876;DHT22;27555;50.808;4.402;2022-12-26T03:56:46;11.50;99.90
41876;DHT22;27555;50.808;4.402;2022-12-26T03:59:42;11.50;99.90
41876;DHT22;27555;50.808;4.402;2022-12-26T04:02:29;11.80;99.90
41876;DHT22;27555;50.808;4.402;2022-12-26T04:05:15;11.70;99.90
41876;DHT22;27555;50.808;4.402;2022-12-26T04:08:06;11.60;99.90
41876;DHT22;27555;50.808;4.402;2022-12-26T04:10:55;11.70;99.90
41876;DHT22;27555;50.808;4.402;2022-12-26T04:16:46;11.90;99.90
41876;DHT22;27555;50.808;4.402;2022-12-26T04:26:01;11.80;99.90
41876;DHT22;27555;50.808;4.402;2022-12-26T04:28:47;12.10;99.90
41876;DHT22;27555;50.808;4.402;2022-12-26T04:34:27;12.00;99.90
41876;DHT22;27555;50.808;4.402;2022-12-26T04:37:20;11.90;99.90
41876;DHT22;27555;50.808;4.402;2022-12-26T04:40:09;11.70;99.90
41876;DHT22;27555;50.808;4.402;2022-12-26T04:42:55;11.50;99.90
41876;DHT22;27555;50.808;4.402;2022-12-26T04:45:40;11.40;99.90
41876;DHT22;27555;50.808;4.402;2022-12-26T04:48:06;11.60;99.90
41876;DHT22;27555;50.808;4.402;2022-12-26T04:50:51;11.80;99.90
41876;DHT22;27555;50.808;4.402;2022-12-26T04:53:18;12.00;99.90
41876;DHT22;27555;50.808;4.402;2022-12-26T04:55:44;11.90;99.90
41876;DHT22;27555;50.808;4.402;2022-12-26T04:58:10;12.00;99.90
41876;DHT22;27555;50.808;4.402;2022-12-26T05:00:35;11.80;99.90
41876;DHT22;27555;50.808;4.402;2022-12-26T05:03:01;11.70;99.90
41876;DHT22;27555;50.808;4.402;2022-12-26T05:05:47;11.70;99.90
41876;DHT22;27555;50.808;4.402;2022-12-26T05:08:46;11.70;99.90
41876;DHT22;27555;50.808;4.402;2022-12-26T05:11:32;11.60;99.90
41876;DHT22;27555;50.808;4.402;2022-12-26T05:13:58;11.40;99.90
41876;DHT22;27555;50.808;4.402;2022-12-26T05:16:25;11.50;99.90
41876;DHT22;27555;50.808;4.402;2022-12-26T05:19:11;11.70;99.90
41876;DHT22;27555;50.808;4.402;2022-12-26T05:21:56;11.80;99.90
41876;DHT22;27555;50.808;4.402;2022-12-26T05:24:41;11.90;99.90
41876;DHT22;27555;50.808;4.402;2022-12-26T05:27:36;11.80;99.90
41876;DHT22;27555;50.808;4.402;2022-12-26T05:30:20;11.50;99.90
41876;DHT22;27555;50.808;4.402;2022-12-26T05:32:46;11.70;99.90
41876;DHT22;27555;50.808;4.402;2022-12-26T05:35:31;11.90;99.90
41876;DHT22;27555;50.808;4.402;2022-12-26T05:37:56;11.80;99.90
41876;DHT22;27555;50.808;4.402;2022-12-26T05:40:22;11.90;99.90
41876;DHT22;27555;50.808;4.402;2022-12-26T05:42:48;11.70;99.90
41876;DHT22;27555;50.808;4.402;2022-12-26T05:45:13;11.90;99.90
41876;DHT22;27555;50.808;4.402;2022-12-26T05:47:39;12.00;99.90
41876;DHT22;27555;50.808;4.402;2022-12-26T05:50:05;12.10;99.90
41876;DHT22;27555;50.808;4.402;2022-12-26T05:52:31;12.00;99.90
41876;DHT22;27555;50.808;4.402;2022-12-26T05:54:57;12.00;99.90
41876;DHT22;27555;50.808;4.402;2022-12-26T05:57:22;12.10;99.90
41876;DHT22;27555;50.808;4.402;2022-12-26T05:59:48;12.10;99.90
41876;DHT22;27555;50.808;4.402;2022-12-26T06:02:13;12.00;99.90
41876;DHT22;27555;50.808;4.402;2022-12-26T06:04:39;11.70;99.90
41876;DHT22;27555;50.808;4.402;2022-12-26T06:07:04;11.60;99.90
41876;DHT22;27555;50.808;4.402;2022-12-26T06:09:30;11.70;99.90
41876;DHT22;27555;50.808;4.402;2022-12-26T06:11:55;11.70;99.90
41876;DHT22;27555;50.808;4.402;2022-12-26T06:14:21;11.60;99.90
41876;DHT22;27555;50.808;4.402;2022-12-26T06:16:47;11.50;99.90
41876;DHT22;27555;50.808;4.402;2022-12-26T06:19:12;11.50;99.90
41876;DHT22;27555;50.808;4.402;2022-12-26T06:21:38;11.60;99.90
41876;DHT22;27555;50.808;4.402;2022-12-26T06:24:03;11.50;99.90
41876;DHT22;27555;50.808;4.402;2022-12-26T06:26:29;11.50;99.90
41876;DHT22;27555;50.808;4.402;2022-12-26T06:28:55;11.50;99.90
41876;DHT22;27555;50.808;4.402;2022-12-26T06:31:22;11.50;99.90
41876;DHT22;27555;50.808;4.402;2022-12-26T06:33:51;11.40;99.90
41876;DHT22;27555;50.808;4.402;2022-12-26T06:36:20;11.30;99.90
41876;DHT22;27555;50.808;4.402;2022-12-26T06:38:46;11.40;99.90
41876;DHT22;27555;50.808;4.402;2022-12-26T06:41:13;11.20;99.90
41876;DHT22;27555;50.808;4.402;2022-12-26T06:43:40;11.30;99.90
41876;DHT22;27555;50.808;4.402;2022-12-26T06:46:07;11.40;99.90
41876;DHT22;27555;50.808;4.402;2022-12-26T06:48:34;11.20;99.90
41876;DHT22;27555;50.808;4.402;2022-12-26T06:51:10;11.10;99.90
41876;DHT22;27555;50.808;4.402;2022-12-26T06:53:36;11.10;99.90
41876;DHT22;27555;50.808;4.402;2022-12-26T06:56:16;11.20;99.90
41876;DHT22;27555;50.808;4.402;2022-12-26T06:58:42;11.50;99.90
41876;DHT22;27555;50.808;4.402;2022-12-26T07:01:13;11.60;99.90
41876;DHT22;27555;50.808;4.402;2022-12-26T07:03:39;11.70;99.90
41876;DHT22;27555;50.808;4.402;2022-12-26T07:06:09;11.70;99.90
41876;DHT22;27555;50.808;4.402;2022-12-26T07:08:35;11.90;99.90
41876;DHT22;27555;50.808;4.402;2022-12-26T07:11:01;11.70;99.90
41876;DHT22;27555;50.808;4.402;2022-12-26T07:13:26;11.80;99.90
41876;DHT22;27555;50.808;4.402;2022-12-26T07:15:52;11.60;99.90
41876;DHT22;27555;50.808;4.402;2022-12-26T07:18:18;11.50;99.90
41876;DHT22;27555;50.808;4.402;2022-12-26T07:20:44;11.70;99.90
41876;DHT22;27555;50.808;4.402;2022-12-26T07:23:09;11.80;99.90
41876;DHT22;27555;50.808;4.402;2022-12-26T07:25:36;11.60;99.90
41876;DHT22;27555;50.808;4.402;2022-12-26T07:28:02;11.60;99.90
41876;DHT22;27555;50.808;4.402;2022-12-26T07:30:28;11.70;99.90
41876;DHT22;27555;50.808;4.402;2022-12-26T07:32:53;11.70;99.90
41876;DHT22;27555;50.808;4.402;2022-12-26T07:35:19;11.80;99.90
41876;DHT22;27555;50.808;4.402;2022-12-26T07:37:44;11.90;99.90
41876;DHT22;27555;50.808;4.402;2022-12-26T07:40:10;11.80;99.90
41876;DHT22;27555;50.808;4.402;2022-12-26T07:42:36;11.80;99.90
41876;DHT22;27555;50.808;4.402;2022-12-26T07:45:02;11.90;99.90
41876;DHT22;27555;50.808;4.402;2022-12-26T07:47:27;11.70;99.90
41876;DHT22;27555;50.808;4.402;2022-12-26T07:49:53;11.80;99.90
41876;DHT22;27555;50.808;4.402;2022-12-26T07:52:18;11.60;99.90
41876;DHT22;27555;50.808;4.402;2022-12-26T07:54:44;11.50;99.90
41876;DHT22;27555;50.808;4.402;2022-12-26T07:57:10;11.50;99.90
41876;DHT22;27555;50.808;4.402;2022-12-26T07:59:35;11.50;99.90
41876;DHT22;27555;50.808;4.402;2022-12-26T08:02:01;11.40;99.90
41876;DHT22;27555;50.808;4.402;2022-12-26T08:04:31;11.30;99.90
41876;DHT22;27555;50.808;4.402;2022-12-26T08:06:56;11.40;99.90
41876;DHT22;27555;50.808;4.402;2022-12-26T08:09:22;11.30;99.90
41876;DHT22;27555;50.808;4.402;2022-12-26T08:11:48;11.30;99.90
41876;DHT22;27555;50.808;4.402;2022-12-26T08:14:14;11.30;99.90
41876;DHT22;27555;50.808;4.402;2022-12-26T08:16:43;11.50;99.90
41876;DHT22;27555;50.808;4.402;2022-12-26T08:19:09;11.60;99.90
41876;DHT22;27555;50.808;4.402;2022-12-26T08:21:35;11.80;99.90
41876;DHT22;27555;50.808;4.402;2022-12-26T08:24:01;11.70;99.90
41876;DHT22;27555;50.808;4.402;2022-12-26T08:26:26;11.70;99.90
41876;DHT22;27555;50.808;4.402;2022-12-26T08:28:55;11.60;99.90
41876;DHT22;27555;50.808;4.402;2022-12-26T08:31:21;11.60;99.90
41876;DHT22;27555;50.808;4.402;2022-12-26T08:33:47;11.60;99.90
41876;DHT22;27555;50.808;4.402;2022-12-26T08:36:13;11.60;99.90
41876;DHT22;27555;50.808;4.402;2022-12-26T08:38:41;11.60;99.90
41876;DHT22;27555;50.808;4.402;2022-12-26T08:41:07;11.50;99.90
41876;DHT22;27555;50.808;4.402;2022-12-26T08:43:33;11.90;99.90
41876;DHT22;27555;50.808;4.402;2022-12-26T08:46:02;11.80;99.90
41876;DHT22;27555;50.808;4.402;2022-12-26T08:48:28;11.50;99.90
41876;DHT22;27555;50.808;4.402;2022-12-26T08:50:59;11.60;99.90
41876;DHT22;27555;50.808;4.402;2022-12-26T08:53:25;11.70;99.90
41876;DHT22;27555;50.808;4.402;2022-12-26T08:55:53;11.80;99.90
41876;DHT22;27555;50.808;4.402;2022-12-26T08:58:19;11.80;99.90
41876;DHT22;27555;50.808;4.402;2022-12-26T09:00:45;11.70;99.90
41876;DHT22;27555;50.808;4.402;2022-12-26T09:03:10;11.70;99.90
41876;DHT22;27555;50.808;4.402;2022-12-26T09:05:36;11.90;99.90
41876;DHT22;27555;50.808;4.402;2022-12-26T09:08:01;12.00;99.90
41876;DHT22;27555;50.808;4.402;2022-12-26T09:10:27;11.80;99.90
41876;DHT22;27555;50.808;4.402;2022-12-26T09:12:53;11.80;99.90
41876;DHT22;27555;50.808;4.402;2022-12-26T09:15:18;12.10;99.90
41876;DHT22;27555;50.808;4.402;2022-12-26T09:17:44;11.90;99.90
41876;DHT22;27555;50.808;4.402;2022-12-26T09:20:09;11.80;99.90
41876;DHT22;27555;50.808;4.402;2022-12-26T09:22:35;11.70;99.90
41876;DHT22;27555;50.808;4.402;2022-12-26T09:25:23;11.90;99.90
41876;DHT22;27555;50.808;4.402;2022-12-26T09:27:50;12.00;99.90
41876;DHT22;27555;50.808;4.402;2022-12-26T09:30:18;12.10;99.90
41876;DHT22;27555;50.808;4.402;2022-12-26T09:32:45;12.20;99.90
41876;DHT22;27555;50.808;4.402;2022-12-26T09:35:10;12.30;99.90
41876;DHT22;27555;50.808;4.402;2022-12-26T09:37:36;12.10;99.90
41876;DHT22;27555;50.808;4.402;2022-12-26T09:40:02;11.90;99.90
41876;DHT22;27555;50.808;4.402;2022-12-26T09:42:34;12.00;99.90
41876;DHT22;27555;50.808;4.402;2022-12-26T09:50:23;12.20;99.90
41876;DHT22;27555;50.808;4.402;2022-12-26T09:53:14;12.00;99.90
41876;DHT22;27555;50.808;4.402;2022-12-26T09:55:54;12.00;99.90
41876;DHT22;27555;50.808;4.402;2022-12-26T09:58:27;12.00;99.90
41876;DHT22;27555;50.808;4.402;2022-12-26T10:01:10;12.00;99.90
41876;DHT22;27555;50.808;4.402;2022-12-26T10:03:43;12.10;99.90
41876;DHT22;27555;50.808;4.402;2022-12-26T10:12:35;12.20;99.90
41876;DHT22;27555;50.808;4.402;2022-12-26T10:15:14;12.20;99.90
41876;DHT22;27555;50.808;4.402;2022-12-26T10:17:54;12.30;99.90
41876;DHT22;27555;50.808;4.402;2022-12-26T10:20:27;12.00;99.90
41876;DHT22;27555;50.808;4.402;2022-12-26T10:23:12;12.30;99.90
41876;DHT22;27555;50.808;4.402;2022-12-26T10:25:52;12.20;99.90
41876;DHT22;27555;50.808;4.402;2022-12-26T10:28:28;12.30;99.90
41876;DHT22;27555;50.808;4.402;2022-12-26T10:30:57;12.30;99.90
41876;DHT22;27555;50.808;4.402;2022-12-26T10:33:48;12.20;99.90
41876;DHT22;27555;50.808;4.402;2022-12-26T10:36:26;11.50;99.90
41876;DHT22;27555;50.808;4.402;2022-12-26T10:38:53;11.40;99.90
41876;DHT22;27555;50.808;4.402;2022-12-26T10:41:26;11.30;99.90
41876;DHT22;27555;50.808;4.402;2022-12-26T10:43:52;11.50;99.90
41876;DHT22;27555;50.808;4.402;2022-12-26T10:48:49;11.90;99.90
41876;DHT22;27555;50.808;4.402;2022-12-26T10:51:15;11.70;99.90
41876;DHT22;27555;50.808;4.402;2022-12-26T10:53:43;11.80;99.90
41876;DHT22;27555;50.808;4.402;2022-12-26T10:56:11;11.90;99.90
41876;DHT22;27555;50.808;4.402;2022-12-26T10:58:37;11.80;99.90
41876;DHT22;27555;50.808;4.402;2022-12-26T11:01:33;11.70;99.90
41876;DHT22;27555;50.808;4.402;2022-12-26T11:04:03;11.70;99.90
41876;DHT22;27555;50.808;4.402;2022-12-26T11:06:38;11.90;99.90
41876;DHT22;27555;50.808;4.402;2022-12-26T11:09:06;11.90;99.90
41876;DHT22;27555;50.808;4.402;2022-12-26T11:11:34;12.10;99.90
41876;DHT22;27555;50.808;4.402;2022-12-26T11:14:40;12.00;99.90
41876;DHT22;27555;50.808;4.402;2022-12-26T11:17:13;12.00;99.90
41876;DHT22;27555;50.808;4.402;2022-12-26T11:19:43;11.60;99.90
41876;DHT22;27555;50.808;4.402;2022-12-26T11:22:29;11.50;99.90
41876;DHT22;27555;50.808;4.402;2022-12-26T11:25:16;11.80;99.90
41876;DHT22;27555;50.808;4.402;2022-12-26T11:27:49;12.10;99.90
41876;DHT22;27555;50.808;4.402;2022-12-26T11:32:41;11.50;99.90
41876;DHT22;27555;50.808;4.402;2022-12-26T11:35:34;11.40;99.90
41876;DHT22;27555;50.808;4.402;2022-12-26T11:38:04;11.40;99.90
41876;DHT22;27555;50.808;4.402;2022-12-26T11:40:36;11.20;99.90
41876;DHT22;27555;50.808;4.402;2022-12-26T11:43:05;10.80;99.90
41876;DHT22;27555;50.808;4.402;2022-12-26T11:45:42;10.80;99.90
41876;DHT22;27555;50.808;4.402;2022-12-26T11:48:20;10.70;99.90
41876;DHT22;27555;50.808;4.402;2022-12-26T11:50:47;10.90;99.90
41876;DHT22;27555;50.808;4.402;2022-12-26T11:53:17;11.00;99.90
41876;DHT22;27555;50.808;4.402;2022-12-26T11:55:44;11.20;99.90
41876;DHT22;27555;50.808;4.402;2022-12-26T11:58:20;11.30;99.90
41876;DHT22;27555;50.808;4.402;2022-12-26T12:03:36;11.30;99.90
41876;DHT22;27555;50.808;4.402;2022-12-26T12:17:23;11.40;99.90
41876;DHT22;27555;50.808;4.402;2022-12-26T12:25:42;11.60;99.90
41876;DHT22;27555;50.808;4.402;2022-12-26T12:28:20;11.50;99.90
41876;DHT22;27555;50.808;4.402;2022-12-26T12:31:47;11.20;99.90
41876;DHT22;27555;50.808;4.402;2022-12-26T12:37:10;11.00;99.90
41876;DHT22;27555;50.808;4.402;2022-12-26T12:42:48;10.30;99.90
41876;DHT22;27555;50.808;4.402;2022-12-26T12:50:50;11.00;99.90
41876;DHT22;27555;50.808;4.402;2022-12-26T13:01:38;11.40;99.90
41876;DHT22;27555;50.808;4.402;2022-12-26T13:04:25;11.50;99.90
41876;DHT22;27555;50.808;4.402;2022-12-26T13:07:01;11.10;99.90
41876;DHT22;27555;50.808;4.402;2022-12-26T13:09:50;10.80;99.90
41876;DHT22;27555;50.808;4.402;2022-12-26T13:12:22;11.00;99.90
41876;DHT22;27555;50.808;4.402;2022-12-26T13:18:08;11.00;99.90
41876;DHT22;27555;50.808;4.402;2022-12-26T13:20:47;11.10;99.90
41876;DHT22;27555;50.808;4.402;2022-12-26T13:23:39;11.00;99.90
41876;DHT22;27555;50.808;4.402;2022-12-26T13:26:31;10.40;99.90
41876;DHT22;27555;50.808;4.402;2022-12-26T13:31:51;10.40;99.90
41876;DHT22;27555;50.808;4.402;2022-12-26T13:34:18;9.90;99.90
41876;DHT22;27555;50.808;4.402;2022-12-26T13:36:47;10.00;99.90
41876;DHT22;27555;50.808;4.402;2022-12-26T13:44:39;9.90;99.90
41876;DHT22;27555;50.808;4.402;2022-12-26T13:47:14;10.10;99.90
41876;DHT22;27555;50.808;4.402;2022-12-26T13:49:51;9.90;99.90
41876;DHT22;27555;50.808;4.402;2022-12-26T13:52:33;9.70;99.90
41876;DHT22;27555;50.808;4.402;2022-12-26T14:17:21;9.70;99.90
41876;DHT22;27555;50.808;4.402;2022-12-26T14:20:11;9.80;99.90
41876;DHT22;27555;50.808;4.402;2022-12-26T14:25:36;9.60;99.90
41876;DHT22;27555;50.808;4.402;2022-12-26T14:31:19;9.50;99.90
41876;DHT22;27555;50.808;4.402;2022-12-26T14:36:51;9.40;99.90
41876;DHT22;27555;50.808;4.402;2022-12-26T14:42:23;9.30;99.90
41876;DHT22;27555;50.808;4.402;2022-12-26T14:45:36;9.40;99.90
41876;DHT22;27555;50.808;4.402;2022-12-26T14:50:52;9.70;99.90
41876;DHT22;27555;50.808;4.402;2022-12-26T14:55:52;9.10;99.90
41876;DHT22;27555;50.808;4.402;2022-12-26T15:14:23;8.30;99.90
41876;DHT22;27555;50.808;4.402;2022-12-26T15:25:09;8.00;99.90
41876;DHT22;27555;50.808;4.402;2022-12-26T15:33:30;8.10;99.90
41876;DHT22;27555;50.808;4.402;2022-12-26T15:39:17;8.20;99.90
41876;DHT22;27555;50.808;4.402;2022-12-26T15:41:54;7.70;99.90
41876;DHT22;27555;50.808;4.402;2022-12-26T15:44:27;8.00;99.90
41876;DHT22;27555;50.808;4.402;2022-12-26T15:47:57;8.10;99.90
41876;DHT22;27555;50.808;4.402;2022-12-26T16:01:43;7.90;99.90
41876;DHT22;27555;50.808;4.402;2022-12-26T16:04:28;8.00;99.90
41876;DHT22;27555;50.808;4.402;2022-12-26T16:09:43;7.90;99.90
41876;DHT22;27555;50.808;4.402;2022-12-26T16:14:45;7.90;99.90
41876;DHT22;27555;50.808;4.402;2022-12-26T16:19:41;7.90;99.90
41876;DHT22;27555;50.808;4.402;2022-12-26T16:22:14;7.80;99.90
41876;DHT22;27555;50.808;4.402;2022-12-26T16:25:05;7.80;99.90
41876;DHT22;27555;50.808;4.402;2022-12-26T16:27:33;7.60;99.90
41876;DHT22;27555;50.808;4.402;2022-12-26T16:30:04;7.40;99.90
41876;DHT22;27555;50.808;4.402;2022-12-26T16:32:34;7.40;99.90
41876;DHT22;27555;50.808;4.402;2022-12-26T16:35:00;7.40;99.90
41876;DHT22;27555;50.808;4.402;2022-12-26T16:37:26;7.60;99.90
41876;DHT22;27555;50.808;4.402;2022-12-26T16:42:53;7.60;99.90
41876;DHT22;27555;50.808;4.402;2022-12-26T16:45:20;7.60;99.90
41876;DHT22;27555;50.808;4.402;2022-12-26T16:47:46;7.70;99.90
41876;DHT22;27555;50.808;4.402;2022-12-26T16:50:18;7.60;99.90
41876;DHT22;27555;50.808;4.402;2022-12-26T16:52:44;7.50;99.90
41876;DHT22;27555;50.808;4.402;2022-12-26T16:55:38;7.50;99.90
41876;DHT22;27555;50.808;4.402;2022-12-26T16:58:14;7.60;99.90
41876;DHT22;27555;50.808;4.402;2022-12-26T17:03:29;7.60;99.90
41876;DHT22;27555;50.808;4.402;2022-12-26T17:05:56;7.40;99.90
41876;DHT22;27555;50.808;4.402;2022-12-26T17:08:22;7.40;99.90
41876;DHT22;27555;50.808;4.402;2022-12-26T17:10:49;7.30;99.90
41876;DHT22;27555;50.808;4.402;2022-12-26T17:13:24;7.30;99.90
41876;DHT22;27555;50.808;4.402;2022-12-26T17:15:56;7.40;99.90
41876;DHT22;27555;50.808;4.402;2022-12-26T17:21:14;7.30;99.90
41876;DHT22;27555;50.808;4.402;2022-12-26T17:23:40;7.30;99.90
41876;DHT22;27555;50.808;4.402;2022-12-26T17:26:27;7.20;99.90
41876;DHT22;27555;50.808;4.402;2022-12-26T17:28:53;7.20;99.90
41876;DHT22;27555;50.808;4.402;2022-12-26T17:33:48;7.20;99.90
41876;DHT22;27555;50.808;4.402;2022-12-26T17:36:15;7.20;99.90
41876;DHT22;27555;50.808;4.402;2022-12-26T17:38:42;7.30;99.90
41876;DHT22;27555;50.808;4.402;2022-12-26T17:41:09;7.30;99.90
41876;DHT22;27555;50.808;4.402;2022-12-26T17:43:38;7.30;99.90
41876;DHT22;27555;50.808;4.402;2022-12-26T17:46:05;7.20;99.90
41876;DHT22;27555;50.808;4.402;2022-12-26T17:48:31;7.20;99.90
41876;DHT22;27555;50.808;4.402;2022-12-26T17:50:58;7.20;99.90
41876;DHT22;27555;50.808;4.402;2022-12-26T17:53:31;7.10;99.90
41876;DHT22;27555;50.808;4.402;2022-12-26T17:56:02;7.00;99.90
41876;DHT22;27555;50.808;4.402;2022-12-26T17:58:29;7.10;99.90
41876;DHT22;27555;50.808;4.402;2022-12-26T18:00:55;7.10;99.90
41876;DHT22;27555;50.808;4.402;2022-12-26T18:03:21;7.10;99.90
41876;DHT22;27555;50.808;4.402;2022-12-26T18:05:47;7.00;99.90
41876;DHT22;27555;50.808;4.402;2022-12-26T18:08:34;7.10;99.90
41876;DHT22;27555;50.808;4.402;2022-12-26T18:11:01;7.00;99.90
41876;DHT22;27555;50.808;4.402;2022-12-26T18:13:28;6.90;99.90
41876;DHT22;27555;50.808;4.402;2022-12-26T18:15:54;7.10;99.90
41876;DHT22;27555;50.808;4.402;2022-12-26T18:18:29;7.00;99.90
41876;DHT22;27555;50.808;4.402;2022-12-26T18:20:56;6.90;99.90
41876;DHT22;27555;50.808;4.402;2022-12-26T18:23:22;7.00;99.90
41876;DHT22;27555;50.808;4.402;2022-12-26T18:25:48;7.20;99.90
41876;DHT22;27555;50.808;4.402;2022-12-26T18:28:15;7.00;99.90
41876;DHT22;27555;50.808;4.402;2022-12-26T18:30:41;6.80;99.90
41876;DHT22;27555;50.808;4.402;2022-12-26T18:33:10;6.80;99.90
41876;DHT22;27555;50.808;4.402;2022-12-26T18:35:41;6.70;99.90
41876;DHT22;27555;50.808;4.402;2022-12-26T18:38:07;6.90;99.90
41876;DHT22;27555;50.808;4.402;2022-12-26T18:40:38;7.10;99.90
41876;DHT22;27555;50.808;4.402;2022-12-26T18:43:06;7.20;99.90
41876;DHT22;27555;50.808;4.402;2022-12-26T18:45:32;7.00;99.90
41876;DHT22;27555;50.808;4.402;2022-12-26T18:47:59;7.00;99.90
41876;DHT22;27555;50.808;4.402;2022-12-26T18:50:26;6.80;99.90
41876;DHT22;27555;50.808;4.402;2022-12-26T18:52:52;7.00;99.90
41876;DHT22;27555;50.808;4.402;2022-12-26T18:55:18;7.00;99.90
41876;DHT22;27555;50.808;4.402;2022-12-26T18:57:43;7.00;99.90
41876;DHT22;27555;50.808;4.402;2022-12-26T19:00:13;7.00;99.90
41876;DHT22;27555;50.808;4.402;2022-12-26T19:02:39;6.80;99.90
41876;DHT22;27555;50.808;4.402;2022-12-26T19:05:05;7.00;99.90
41876;DHT22;27555;50.808;4.402;2022-12-26T19:07:31;7.00;99.90
41876;DHT22;27555;50.808;4.402;2022-12-26T19:09:57;6.90;99.90
41876;DHT22;27555;50.808;4.402;2022-12-26T19:12:25;7.20;99.90
41876;DHT22;27555;50.808;4.402;2022-12-26T19:14:50;7.10;99.90
41876;DHT22;27555;50.808;4.402;2022-12-26T19:17:16;7.10;99.90
41876;DHT22;27555;50.808;4.402;2022-12-26T19:19:42;7.20;99.90
41876;DHT22;27555;50.808;4.402;2022-12-26T19:22:08;7.10;99.90
41876;DHT22;27555;50.808;4.402;2022-12-26T19:24:34;7.00;99.90
41876;DHT22;27555;50.808;4.402;2022-12-26T19:27:01;6.90;99.90
41876;DHT22;27555;50.808;4.402;2022-12-26T19:29:26;6.80;99.90
41876;DHT22;27555;50.808;4.402;2022-12-26T19:31:52;6.80;99.90
41876;DHT22;27555;50.808;4.402;2022-12-26T19:34:18;6.90;99.90
41876;DHT22;27555;50.808;4.402;2022-12-26T19:36:43;6.90;99.90
41876;DHT22;27555;50.808;4.402;2022-12-26T19:39:09;7.00;99.90
41876;DHT22;27555;50.808;4.402;2022-12-26T19:41:34;6.90;99.90
41876;DHT22;27555;50.808;4.402;2022-12-26T19:44:00;6.90;99.90
41876;DHT22;27555;50.808;4.402;2022-12-26T19:46:26;7.00;99.90
41876;DHT22;27555;50.808;4.402;2022-12-26T19:48:52;7.00;99.90
41876;DHT22;27555;50.808;4.402;2022-12-26T19:51:19;7.00;99.90
41876;DHT22;27555;50.808;4.402;2022-12-26T19:53:46;7.00;99.90